Terminal Aerodrome Forecast
Issued by NWS Wilmington, NC

Home | Current Version | Previous Version | Text Only | Print | Product List | Glossary On
Versions: 1 2 3 4 5 6 7 8 9 10 11 12 13 14 15 16 17 18
736
FTUS42 KILM 071727
TAFILM
TAF
KILM 071727Z 0718/0818 36020G34KT 3SM RA BR SCT004 OVC007
     FM072000 35028G40KT 6SM +RA BR SCT007 OVC015
     FM080100 32020G30KT P6SM -RA BKN025 OVC050
     FM080700 31010KT P6SM SCT050
     FM081300 28007KT P6SM FEW250=

USA.gov is the U.S. government's official web portal to all federal, state and local government web resources and services.